createdAt,value
2023-05-19T00:00:38.352Z,95159.00
2023-05-19T00:01:38.315Z,95157.00
2023-05-19T00:02:38.419Z,95157.00
2023-05-19T00:03:38.449Z,95155.00
2023-05-19T00:04:38.382Z,95155.00
2023-05-19T00:05:38.427Z,95153.00
2023-05-19T00:06:38.416Z,95151.00
2023-05-19T00:07:38.426Z,95149.00
2023-05-19T00:08:38.523Z,95149.00
2023-05-19T00:09:38.470Z,95151.00
2023-05-19T00:10:38.418Z,95149.00
2023-05-19T00:11:39.097Z,95151.00
2023-05-19T00:12:38.463Z,95149.00
2023-05-19T00:13:38.446Z,95149.00
2023-05-19T00:14:38.483Z,95147.00
2023-05-19T00:15:38.554Z,95149.00
2023-05-19T00:16:38.484Z,95147.00
2023-05-19T00:17:38.529Z,95149.00
2023-05-19T00:18:38.588Z,95149.00
2023-05-19T00:19:38.544Z,95149.00
2023-05-19T00:20:38.501Z,95153.00
2023-05-19T00:21:38.494Z,95151.00
2023-05-19T00:22:38.506Z,95149.00
2023-05-19T00:23:38.518Z,95151.00
2023-05-19T00:24:38.555Z,95153.00
2023-05-19T00:25:38.546Z,95151.00
2023-05-19T00:26:38.569Z,95153.00
2023-05-19T00:27:38.585Z,95155.00
2023-05-19T00:28:38.609Z,95153.00
2023-05-19T00:29:38.612Z,95153.00
2023-05-19T00:30:38.588Z,95155.00
2023-05-19T00:31:38.650Z,95153.00
2023-05-19T00:32:38.684Z,95153.00
2023-05-19T00:33:38.668Z,95155.00
2023-05-19T00:34:38.675Z,95153.00
2023-05-19T00:35:38.628Z,95155.00
2023-05-19T00:36:38.663Z,95153.00
2023-05-19T00:37:38.694Z,95153.00
2023-05-19T00:38:38.644Z,95153.00
2023-05-19T00:39:38.676Z,95151.00
2023-05-19T00:40:38.716Z,95151.00
2023-05-19T00:41:38.695Z,95153.00
2023-05-19T00:42:38.695Z,95151.00
2023-05-19T00:43:38.709Z,95151.00
2023-05-19T00:44:38.734Z,95139.00
2023-05-19T00:45:38.758Z,95139.00
2023-05-19T00:46:38.777Z,95137.00
2023-05-19T00:47:38.854Z,95137.00
2023-05-19T00:48:38.803Z,95139.00
2023-05-19T00:49:38.805Z,95139.00
2023-05-19T00:50:38.820Z,95137.00
2023-05-19T00:51:38.836Z,95139.00
2023-05-19T00:52:38.913Z,95139.00
2023-05-19T00:53:38.873Z,95147.00
2023-05-19T00:54:38.881Z,95139.00
2023-05-19T00:55:38.906Z,95137.00
2023-05-19T00:56:38.935Z,95135.00
2023-05-19T00:57:38.968Z,95133.00
2023-05-19T00:58:38.977Z,95131.00
2023-05-19T00:59:38.973Z,95131.00
2023-05-19T01:00:39.027Z,95129.00
2023-05-19T01:01:39.081Z,95133.00
2023-05-19T01:02:39.212Z,95131.00
2023-05-19T01:03:39.158Z,95133.00
2023-05-19T01:04:39.095Z,95133.00
2023-05-19T01:05:39.087Z,95133.00
2023-05-19T01:06:39.140Z,95133.00
2023-05-19T01:07:39.128Z,95135.00
2023-05-19T01:08:39.122Z,95133.00
2023-05-19T01:09:39.142Z,95133.00
2023-05-19T01:10:39.167Z,95133.00
2023-05-19T01:11:39.191Z,95133.00
2023-05-19T01:12:39.176Z,95135.00
2023-05-19T01:13:41.930Z,95131.00
2023-05-19T01:14:39.203Z,95133.00
2023-05-19T01:15:39.202Z,95133.00
2023-05-19T01:16:39.241Z,95133.00
2023-05-19T01:17:39.204Z,95135.00
2023-05-19T01:18:39.243Z,95133.00
2023-05-19T01:19:39.164Z,95133.00
2023-05-19T01:20:39.190Z,95133.00
2023-05-19T01:21:39.183Z,95131.00
2023-05-19T01:22:39.157Z,95131.00
2023-05-19T01:23:39.153Z,95131.00
2023-05-19T01:24:39.139Z,95129.00
2023-05-19T01:25:39.156Z,95127.00
2023-05-19T01:26:39.113Z,95131.00
2023-05-19T01:27:39.141Z,95129.00
2023-05-19T01:28:39.132Z,95131.00
2023-05-19T01:29:39.108Z,95131.00
2023-05-19T01:30:39.102Z,95133.00
2023-05-19T01:31:39.117Z,95131.00
2023-05-19T01:32:39.143Z,95133.00
2023-05-19T01:33:39.077Z,95133.00
2023-05-19T01:34:39.092Z,95131.00
2023-05-19T01:35:39.112Z,95133.00
2023-05-19T01:36:39.085Z,95133.00
2023-05-19T01:37:39.048Z,95131.00
2023-05-19T01:38:39.055Z,95129.00
2023-05-19T01:39:39.049Z,95129.00
2023-05-19T01:40:39.028Z,95127.00
2023-05-19T01:41:39.037Z,95131.00
2023-05-19T01:42:39.039Z,95133.00
2023-05-19T01:43:39.050Z,95129.00
2023-05-19T01:44:38.988Z,95131.00
2023-05-19T01:45:39.026Z,95133.00
2023-05-19T01:46:38.991Z,95133.00
2023-05-19T01:47:39.004Z,95131.00
2023-05-19T01:48:38.975Z,95131.00
2023-05-19T01:49:38.987Z,95133.00
2023-05-19T01:50:38.981Z,95131.00
2023-05-19T01:51:38.925Z,95131.00
2023-05-19T01:52:38.937Z,95131.00
2023-05-19T01:53:38.942Z,95131.00
2023-05-19T01:54:38.935Z,95133.00
2023-05-19T01:55:38.961Z,95131.00
2023-05-19T01:56:38.949Z,95131.00
2023-05-19T01:57:38.958Z,95131.00
2023-05-19T01:58:38.940Z,95131.00
2023-05-19T01:59:38.953Z,95131.00
2023-05-19T02:00:38.896Z,95135.00
2023-05-19T02:01:38.983Z,95131.00
2023-05-19T02:02:38.991Z,95131.00
2023-05-19T02:03:38.881Z,95131.00
2023-05-19T02:04:39.013Z,95135.00
2023-05-19T02:05:38.894Z,95133.00
2023-05-19T02:06:38.833Z,95133.00
2023-05-19T02:07:38.909Z,95133.00
2023-05-19T02:08:38.860Z,95135.00
2023-05-19T02:09:38.871Z,95137.00
2023-05-19T02:10:38.949Z,95137.00
2023-05-19T02:11:38.849Z,95139.00
2023-05-19T02:12:38.846Z,95137.00
2023-05-19T02:13:38.854Z,95139.00
2023-05-19T02:14:38.790Z,95147.00
2023-05-19T02:15:38.946Z,95139.00
2023-05-19T02:16:38.809Z,95139.00
2023-05-19T02:17:38.870Z,95139.00
2023-05-19T02:18:38.838Z,95147.00
2023-05-19T02:19:38.773Z,95137.00
2023-05-19T02:20:38.781Z,95149.00
2023-05-19T02:21:38.814Z,95147.00
2023-05-19T02:22:38.746Z,95139.00
2023-05-19T02:23:38.801Z,95139.00
2023-05-19T02:24:38.748Z,95147.00
2023-05-19T02:25:38.775Z,95147.00
2023-05-19T02:26:38.731Z,95147.00
2023-05-19T02:27:38.678Z,95147.00
2023-05-19T02:28:38.711Z,95149.00
2023-05-19T02:29:38.727Z,95149.00
2023-05-19T02:30:38.684Z,95147.00
2023-05-19T02:31:38.768Z,95147.00
2023-05-19T02:32:38.754Z,95139.00
2023-05-19T02:33:38.675Z,95147.00
2023-05-19T02:34:38.672Z,95147.00
2023-05-19T02:35:38.684Z,95147.00
2023-05-19T02:36:38.632Z,95147.00
2023-05-19T02:37:38.698Z,95149.00
2023-05-19T02:38:38.646Z,95149.00
2023-05-19T02:39:38.647Z,95147.00
2023-05-19T02:40:38.670Z,95147.00
2023-05-19T02:41:38.653Z,95139.00
2023-05-19T02:42:38.624Z,95147.00
2023-05-19T02:43:38.636Z,95147.00
2023-05-19T02:44:38.689Z,95139.00
2023-05-19T02:45:38.691Z,95137.00
2023-05-19T02:46:38.782Z,95139.00
2023-05-19T02:47:38.804Z,95139.00
2023-05-19T02:48:38.786Z,95147.00
2023-05-19T02:49:38.775Z,95147.00
2023-05-19T02:50:38.774Z,95135.00
2023-05-19T02:51:38.846Z,95133.00
2023-05-19T02:52:38.841Z,95135.00
2023-05-19T02:53:38.840Z,95135.00
2023-05-19T02:54:38.896Z,95135.00
2023-05-19T02:55:38.920Z,95131.00
2023-05-19T02:56:38.948Z,95133.00
2023-05-19T02:57:39.000Z,95131.00
2023-05-19T02:58:39.029Z,95133.00
2023-05-19T02:59:39.047Z,95133.00
2023-05-19T03:00:39.046Z,95133.00
2023-05-19T03:01:39.164Z,95131.00
2023-05-19T03:02:39.235Z,95127.00
2023-05-19T03:03:39.237Z,95131.00
2023-05-19T03:04:39.180Z,95131.00
2023-05-19T03:05:39.215Z,95131.00
2023-05-19T03:06:39.237Z,95129.00
2023-05-19T03:07:39.325Z,95127.00
2023-05-19T03:08:41.621Z,95127.00
2023-05-19T03:09:39.302Z,95122.00
2023-05-19T03:10:39.265Z,95118.00
2023-05-19T03:11:39.264Z,95124.00
2023-05-19T03:12:39.262Z,95120.00
2023-05-19T03:13:39.260Z,95120.00
2023-05-19T03:14:39.265Z,95120.00
2023-05-19T03:15:39.260Z,95120.00
2023-05-19T03:16:39.355Z,95120.00
2023-05-19T03:17:39.298Z,95120.00
2023-05-19T03:18:39.250Z,95120.00
2023-05-19T03:19:39.223Z,95120.00
2023-05-19T03:20:41.586Z,95120.00
2023-05-19T03:21:39.264Z,95120.00
2023-05-19T03:22:39.314Z,95120.00
2023-05-19T03:23:39.364Z,95120.00
2023-05-19T03:24:39.360Z,95120.00
2023-05-19T03:25:39.429Z,95120.00
2023-05-19T03:26:39.391Z,95116.00
2023-05-19T03:27:39.416Z,95118.00
2023-05-19T03:28:39.469Z,95120.00
2023-05-19T03:29:39.465Z,95118.00
2023-05-19T03:30:39.451Z,95124.00
2023-05-19T03:31:39.489Z,95122.00
2023-05-19T03:32:39.576Z,95120.00
2023-05-19T03:33:39.608Z,95120.00
2023-05-19T03:34:39.604Z,95120.00
2023-05-19T03:35:39.609Z,95120.00
2023-05-19T03:36:39.698Z,95120.00
2023-05-19T03:37:39.652Z,95120.00
2023-05-19T03:38:39.698Z,95120.00
2023-05-19T03:39:39.761Z,95120.00
2023-05-19T03:40:39.752Z,95120.00
2023-05-19T03:41:39.822Z,95122.00
2023-05-19T03:42:39.857Z,95120.00
2023-05-19T03:43:39.869Z,95120.00
2023-05-19T03:44:39.894Z,95122.00
2023-05-19T03:45:40.046Z,95120.00
2023-05-19T03:46:39.999Z,95120.00
2023-05-19T03:47:39.993Z,95120.00
2023-05-19T03:48:40.021Z,95118.00
2023-05-19T03:49:40.031Z,95120.00
2023-05-19T03:50:40.124Z,95120.00
2023-05-19T03:51:40.128Z,95118.00
2023-05-19T03:52:40.120Z,95124.00
2023-05-19T03:53:40.145Z,95122.00
2023-05-19T03:54:40.178Z,95124.00
2023-05-19T03:55:40.244Z,95124.00
2023-05-19T03:56:41.264Z,95125.00
2023-05-19T03:57:40.289Z,95127.00
2023-05-19T03:58:40.305Z,95127.00
2023-05-19T03:59:40.343Z,95129.00
2023-05-19T04:00:40.352Z,95131.00
2023-05-19T04:01:40.412Z,95124.00
2023-05-19T04:02:40.535Z,95127.00
2023-05-19T04:03:40.580Z,95125.00
2023-05-19T04:04:40.544Z,95125.00
2023-05-19T04:05:40.535Z,95125.00
2023-05-19T04:06:40.564Z,95124.00
2023-05-19T04:07:40.577Z,95122.00
2023-05-19T04:08:40.644Z,95122.00
2023-05-19T04:09:40.657Z,95124.00
2023-05-19T04:10:40.684Z,95124.00
2023-05-19T04:11:40.789Z,95120.00
2023-05-19T04:12:40.816Z,95122.00
2023-05-19T04:13:40.806Z,95122.00
2023-05-19T04:14:40.863Z,95118.00
2023-05-19T04:15:40.945Z,95120.00
2023-05-19T04:16:40.982Z,95124.00
2023-05-19T04:17:41.071Z,95122.00
2023-05-19T04:18:41.059Z,95122.00
2023-05-19T04:19:41.062Z,95120.00
2023-05-19T04:20:41.147Z,95124.00
2023-05-19T04:21:41.244Z,95122.00
2023-05-19T04:22:41.209Z,95122.00
2023-05-19T04:23:41.190Z,95125.00
2023-05-19T04:24:41.177Z,95124.00
2023-05-19T04:25:41.182Z,95124.00
2023-05-19T04:26:41.176Z,95127.00
2023-05-19T04:27:41.207Z,95125.00
2023-05-19T04:28:41.222Z,95125.00
2023-05-19T04:29:41.241Z,95127.00
2023-05-19T04:30:41.245Z,95129.00
2023-05-19T04:31:41.346Z,95131.00
2023-05-19T04:32:41.376Z,95127.00
2023-05-19T04:33:41.364Z,95129.00
2023-05-19T04:34:41.353Z,95127.00
2023-05-19T04:35:41.410Z,95131.00
2023-05-19T04:36:41.461Z,95133.00
2023-05-19T04:37:41.462Z,95135.00
2023-05-19T04:38:41.585Z,95133.00
2023-05-19T04:39:41.585Z,95139.00
2023-05-19T04:40:41.614Z,95133.00
2023-05-19T04:41:41.618Z,95135.00
2023-05-19T04:42:41.688Z,95133.00
2023-05-19T04:43:41.913Z,95133.00
2023-05-19T04:44:41.752Z,95137.00
2023-05-19T04:45:41.768Z,95139.00
2023-05-19T04:46:41.873Z,95139.00
2023-05-19T04:47:41.915Z,95139.00
2023-05-19T04:48:41.887Z,95135.00
2023-05-19T04:49:41.904Z,95135.00
2023-05-19T04:50:41.895Z,95133.00
2023-05-19T04:51:41.977Z,95129.00
2023-05-19T04:52:41.961Z,95133.00
2023-05-19T04:53:41.981Z,95133.00
2023-05-19T04:54:42.001Z,95135.00
2023-05-19T04:55:41.978Z,95135.00
2023-05-19T04:56:42.012Z,95135.00
2023-05-19T04:57:42.039Z,95133.00
2023-05-19T04:58:42.087Z,95133.00
2023-05-19T04:59:42.136Z,95131.00
2023-05-19T05:00:42.106Z,95129.00
2023-05-19T05:01:42.108Z,95127.00
2023-05-19T05:02:42.164Z,95127.00
2023-05-19T05:03:42.229Z,95129.00
2023-05-19T05:04:42.099Z,95129.00
2023-05-19T05:05:42.117Z,95131.00
2023-05-19T05:06:42.155Z,95135.00
2023-05-19T05:07:42.123Z,95133.00
2023-05-19T05:08:42.173Z,95131.00
2023-05-19T05:09:42.185Z,95127.00
2023-05-19T05:10:42.208Z,95127.00
2023-05-19T05:11:42.188Z,95127.00
2023-05-19T05:12:42.231Z,95127.00
2023-05-19T05:13:42.273Z,95127.00
2023-05-19T05:14:42.260Z,95125.00
2023-05-19T05:15:42.250Z,95127.00
2023-05-19T05:16:42.342Z,95131.00
2023-05-19T05:17:42.354Z,95129.00
2023-05-19T05:18:44.660Z,95129.00
2023-05-19T05:19:42.310Z,95129.00
2023-05-19T05:20:42.277Z,95129.00
2023-05-19T05:21:42.289Z,95127.00
2023-05-19T05:22:42.261Z,95127.00
2023-05-19T05:23:42.273Z,95125.00
2023-05-19T05:24:42.276Z,95124.00
2023-05-19T05:25:42.243Z,95124.00
2023-05-19T05:26:42.259Z,95124.00
2023-05-19T05:27:42.227Z,95124.00
2023-05-19T05:28:42.248Z,95125.00
2023-05-19T05:29:42.196Z,95125.00
2023-05-19T05:30:42.206Z,95125.00
2023-05-19T05:31:42.217Z,95125.00
2023-05-19T05:32:42.271Z,95124.00
2023-05-19T05:33:42.289Z,95122.00
2023-05-19T05:34:42.180Z,95124.00
2023-05-19T05:35:42.214Z,95122.00
2023-05-19T05:36:42.195Z,95122.00
2023-05-19T05:37:42.186Z,95120.00
2023-05-19T05:38:42.159Z,95118.00
2023-05-19T05:39:42.144Z,95120.00
2023-05-19T05:40:42.173Z,95120.00
2023-05-19T05:41:42.142Z,95122.00
2023-05-19T05:42:42.132Z,95122.00
2023-05-19T05:43:42.132Z,95124.00
2023-05-19T05:44:42.143Z,95124.00
2023-05-19T05:45:42.149Z,95122.00
2023-05-19T05:46:42.139Z,95125.00
2023-05-19T05:47:42.203Z,95122.00
2023-05-19T05:48:42.136Z,95122.00
2023-05-19T05:49:42.135Z,95124.00
2023-05-19T05:50:42.087Z,95120.00
2023-05-19T05:51:46.335Z,95118.00
2023-05-19T05:52:43.089Z,95118.00
2023-05-19T05:53:42.064Z,95118.00
2023-05-19T05:54:42.082Z,95118.00
2023-05-19T05:55:42.044Z,95118.00
2023-05-19T05:56:42.067Z,95118.00
2023-05-19T05:57:42.048Z,95116.00
2023-05-19T05:58:42.067Z,95112.00
2023-05-19T05:59:42.000Z,95114.00
2023-05-19T06:00:42.050Z,95114.00
2023-05-19T06:01:42.026Z,95112.00
2023-05-19T06:02:42.115Z,95116.00
2023-05-19T06:03:42.064Z,95114.00
2023-05-19T06:04:41.986Z,95112.00
2023-05-19T06:05:42.020Z,95110.00
2023-05-19T06:06:42.002Z,95110.00
2023-05-19T06:07:41.997Z,95112.00
2023-05-19T06:08:41.973Z,95112.00
2023-05-19T06:09:41.972Z,95112.00
2023-05-19T06:10:41.979Z,95114.00
2023-05-19T06:11:41.949Z,95114.00
2023-05-19T06:12:41.989Z,95110.00
2023-05-19T06:13:41.935Z,95108.00
2023-05-19T06:14:41.973Z,95108.00
2023-05-19T06:15:41.928Z,95104.00
2023-05-19T06:16:42.043Z,95108.00
2023-05-19T06:17:41.968Z,95108.00
2023-05-19T06:18:41.918Z,95114.00
2023-05-19T06:19:41.980Z,95112.00
2023-05-19T06:20:42.022Z,95110.00
2023-05-19T06:21:42.039Z,95110.00
2023-05-19T06:22:42.101Z,95114.00
2023-05-19T06:23:42.173Z,95116.00
2023-05-19T06:24:42.181Z,95112.00
2023-05-19T06:25:42.266Z,95116.00
2023-05-19T06:26:42.265Z,95114.00
2023-05-19T06:27:42.342Z,95116.00
2023-05-19T06:28:42.348Z,95112.00
2023-05-19T06:29:42.407Z,95114.00
2023-05-19T06:30:42.429Z,95110.00
2023-05-19T06:31:42.530Z,95112.00
2023-05-19T06:32:42.545Z,95108.00
2023-05-19T06:33:42.527Z,95108.00
2023-05-19T06:34:42.620Z,95110.00
2023-05-19T06:35:42.649Z,95108.00
2023-05-19T06:36:42.668Z,95106.00
2023-05-19T06:37:42.748Z,95110.00
2023-05-19T06:38:42.794Z,95108.00
2023-05-19T06:39:42.817Z,95108.00
2023-05-19T06:40:42.869Z,95108.00
2023-05-19T06:41:42.909Z,95108.00
2023-05-19T06:42:42.957Z,95106.00
2023-05-19T06:43:42.990Z,95106.00
2023-05-19T06:44:43.078Z,95106.00
2023-05-19T06:45:43.068Z,95102.00
2023-05-19T06:46:43.162Z,95104.00
2023-05-19T06:47:43.245Z,95104.00
2023-05-19T06:48:43.178Z,95102.00
2023-05-19T06:49:43.207Z,95104.00
2023-05-19T06:50:43.210Z,95102.00
2023-05-19T06:51:43.238Z,95104.00
2023-05-19T06:52:43.216Z,95104.00
2023-05-19T06:53:43.233Z,95102.00
2023-05-19T06:54:43.224Z,95102.00
2023-05-19T06:55:57.455Z,95102.00
2023-05-19T06:56:44.246Z,95102.00
2023-05-19T06:57:43.216Z,95102.00
2023-05-19T06:58:43.254Z,95102.00
2023-05-19T06:59:43.220Z,95102.00
2023-05-19T07:00:43.200Z,95098.00
2023-05-19T07:01:43.297Z,95102.00
2023-05-19T07:02:43.277Z,95098.00
2023-05-19T07:03:43.217Z,95098.00
2023-05-19T07:04:43.285Z,95098.00
2023-05-19T07:05:43.183Z,95096.00
2023-05-19T07:06:43.171Z,95094.00
2023-05-19T07:07:43.179Z,95096.00
2023-05-19T07:08:43.171Z,95096.00
2023-05-19T07:09:43.193Z,95096.00
2023-05-19T07:10:43.146Z,95098.00
2023-05-19T07:11:43.180Z,95098.00
2023-05-19T07:12:43.124Z,95100.00
2023-05-19T07:13:43.118Z,95098.00
2023-05-19T07:14:43.085Z,95098.00
2023-05-19T07:15:43.137Z,95096.00
2023-05-19T07:16:43.170Z,95098.00
2023-05-19T07:17:43.196Z,95098.00
2023-05-19T07:18:43.172Z,95094.00
2023-05-19T07:19:43.169Z,95094.00
2023-05-19T07:20:43.056Z,95098.00
2023-05-19T07:21:43.077Z,95096.00
2023-05-19T07:22:43.032Z,95094.00
2023-05-19T07:23:43.056Z,95098.00
2023-05-19T07:24:43.045Z,95096.00
2023-05-19T07:25:43.017Z,95094.00
2023-05-19T07:26:43.032Z,95094.00
2023-05-19T07:27:43.009Z,95092.00
2023-05-19T07:28:43.029Z,95092.00
2023-05-19T07:29:42.985Z,95088.00
2023-05-19T07:30:43.020Z,95088.00
2023-05-19T07:31:43.037Z,95088.00
2023-05-19T07:32:43.035Z,95090.00
2023-05-19T07:33:43.009Z,95086.00
2023-05-19T07:34:42.976Z,95084.00
2023-05-19T07:35:42.952Z,95084.00
2023-05-19T07:36:43.080Z,95084.00
2023-05-19T07:37:42.947Z,95082.00
2023-05-19T07:38:43.014Z,95080.00
2023-05-19T07:39:42.953Z,95082.00
2023-05-19T07:40:42.911Z,95080.00
2023-05-19T07:41:42.966Z,95080.00
2023-05-19T07:42:42.897Z,95078.00
2023-05-19T07:43:42.924Z,95078.00
2023-05-19T07:44:42.898Z,95077.00
2023-05-19T07:45:42.969Z,95075.00
2023-05-19T07:46:42.889Z,95080.00
2023-05-19T07:47:42.941Z,95077.00
2023-05-19T07:48:42.900Z,95075.00
2023-05-19T07:49:42.987Z,95073.00
2023-05-19T07:50:43.028Z,95071.00
2023-05-19T07:51:43.028Z,95069.00
2023-05-19T07:52:43.068Z,95071.00
2023-05-19T07:53:43.116Z,95065.00
2023-05-19T07:54:43.143Z,95067.00
2023-05-19T07:55:43.188Z,95069.00
2023-05-19T07:56:43.236Z,95063.00
2023-05-19T07:57:43.325Z,95065.00
2023-05-19T07:58:43.405Z,95061.00
2023-05-19T07:59:43.397Z,95063.00
2023-05-19T08:00:43.501Z,95063.00
2023-05-19T08:01:43.514Z,95065.00
2023-05-19T08:02:43.647Z,95063.00
2023-05-19T08:03:43.772Z,95063.00
2023-05-19T08:04:43.781Z,95061.00
2023-05-19T08:05:43.738Z,95059.00
2023-05-19T08:06:43.818Z,95059.00
2023-05-19T08:07:43.892Z,95057.00
2023-05-19T08:08:43.929Z,95057.00
2023-05-19T08:09:44.012Z,95057.00
2023-05-19T08:10:44.063Z,95057.00
2023-05-19T08:11:44.125Z,95057.00
2023-05-19T08:12:44.207Z,95055.00
2023-05-19T08:13:44.239Z,95055.00
2023-05-19T08:14:44.279Z,95055.00
2023-05-19T08:15:44.341Z,95055.00
2023-05-19T08:16:44.404Z,95055.00
2023-05-19T08:17:44.477Z,95057.00
2023-05-19T08:18:44.601Z,95055.00
2023-05-19T08:19:44.545Z,95055.00
2023-05-19T08:20:44.583Z,95053.00
2023-05-19T08:21:44.745Z,95051.00
2023-05-19T08:22:44.673Z,95051.00
2023-05-19T08:23:44.726Z,95049.00
2023-05-19T08:24:44.851Z,95047.00
2023-05-19T08:25:44.812Z,95047.00
2023-05-19T08:26:44.873Z,95045.00
2023-05-19T08:27:44.880Z,95045.00
2023-05-19T08:28:44.940Z,95041.00
2023-05-19T08:29:44.982Z,95043.00
2023-05-19T08:30:45.010Z,95041.00
2023-05-19T08:31:45.089Z,95041.00
2023-05-19T08:32:45.101Z,95041.00
2023-05-19T08:33:45.113Z,95041.00
2023-05-19T08:34:45.103Z,95039.00
2023-05-19T08:35:45.133Z,95037.00
2023-05-19T08:36:45.182Z,95037.00
2023-05-19T08:37:45.180Z,95035.00
2023-05-19T08:38:45.195Z,95033.00
2023-05-19T08:39:45.237Z,95031.00
2023-05-19T08:40:45.244Z,95031.00
2023-05-19T08:41:45.259Z,95030.00
2023-05-19T08:42:45.292Z,95028.00
2023-05-19T08:43:45.313Z,95030.00
2023-05-19T08:44:45.324Z,95028.00
2023-05-19T08:45:45.304Z,95028.00
2023-05-19T08:46:45.309Z,95028.00
2023-05-19T08:47:45.350Z,95030.00
2023-05-19T08:48:45.365Z,95024.00
2023-05-19T08:49:45.345Z,95022.00
2023-05-19T08:50:45.325Z,95018.00
2023-05-19T08:51:45.381Z,95016.00
2023-05-19T08:52:47.864Z,95016.00
2023-05-19T08:53:45.363Z,95014.00
2023-05-19T08:54:45.362Z,95014.00
2023-05-19T08:55:45.347Z,95012.00
2023-05-19T08:56:45.344Z,95008.00
2023-05-19T08:57:45.333Z,95012.00
2023-05-19T08:58:45.329Z,95012.00
2023-05-19T08:59:45.296Z,95010.00
2023-05-19T09:00:45.309Z,95010.00
2023-05-19T09:01:45.464Z,95010.00
2023-05-19T09:02:55.070Z,95010.00
2023-05-19T09:03:46.428Z,95010.00
2023-05-19T09:04:45.337Z,95010.00
2023-05-19T09:05:45.305Z,95006.00
2023-05-19T09:06:45.380Z,95004.00
2023-05-19T09:07:45.269Z,95006.00
2023-05-19T09:08:45.284Z,95004.00
2023-05-19T09:09:45.225Z,95004.00
2023-05-19T09:10:45.261Z,95006.00
2023-05-19T09:11:45.233Z,95002.00
2023-05-19T09:12:45.248Z,95002.00
2023-05-19T09:13:45.231Z,95004.00
2023-05-19T09:14:45.221Z,95002.00
2023-05-19T09:15:45.201Z,95000.00
2023-05-19T09:16:45.222Z,94998.00
2023-05-19T09:17:45.198Z,94998.00
2023-05-19T09:18:45.234Z,94996.00
2023-05-19T09:19:45.192Z,94992.00
2023-05-19T09:20:45.230Z,94990.00
2023-05-19T09:21:45.190Z,94990.00
2023-05-19T09:22:45.168Z,94988.00
2023-05-19T09:23:45.184Z,94988.00
2023-05-19T09:24:45.217Z,94986.00
2023-05-19T09:25:45.149Z,94986.00
2023-05-19T09:26:45.144Z,94984.00
2023-05-19T09:27:45.138Z,94980.00
2023-05-19T09:28:45.125Z,94980.00
2023-05-19T09:29:45.167Z,94982.00
2023-05-19T09:30:45.186Z,94978.00
2023-05-19T09:31:45.281Z,94980.00
2023-05-19T09:32:45.386Z,94975.00
2023-05-19T09:33:46.209Z,94973.00
2023-05-19T09:34:45.426Z,94975.00
2023-05-19T09:35:45.478Z,94973.00
2023-05-19T09:36:45.513Z,94973.00
2023-05-19T09:37:45.573Z,94971.00
2023-05-19T09:38:45.658Z,94971.00
2023-05-19T09:39:45.715Z,94971.00
2023-05-19T09:40:45.801Z,94967.00
2023-05-19T09:41:45.828Z,94969.00
2023-05-19T09:42:45.853Z,94969.00
2023-05-19T09:43:45.944Z,94967.00
2023-05-19T09:44:45.973Z,94969.00
2023-05-19T09:45:46.081Z,94967.00
2023-05-19T09:46:46.137Z,94961.00
2023-05-19T09:47:46.218Z,94959.00
2023-05-19T09:48:46.188Z,94955.00
2023-05-19T09:49:46.217Z,94953.00
2023-05-19T09:50:46.248Z,94953.00
2023-05-19T09:51:46.296Z,94949.00
2023-05-19T09:52:46.361Z,94949.00
2023-05-19T09:53:46.395Z,94953.00
2023-05-19T09:54:46.432Z,94949.00
2023-05-19T09:55:46.466Z,94949.00
2023-05-19T09:56:46.500Z,94949.00
2023-05-19T09:57:46.529Z,94945.00
2023-05-19T09:58:46.539Z,94945.00
2023-05-19T09:59:46.577Z,94939.00
2023-05-19T10:00:46.594Z,94943.00
2023-05-19T10:01:46.753Z,94937.00
2023-05-19T10:02:46.682Z,94935.00
2023-05-19T10:03:46.668Z,94931.00
2023-05-19T10:04:46.795Z,94929.00
2023-05-19T10:05:46.764Z,94926.00
2023-05-19T10:06:46.735Z,94928.00
2023-05-19T10:07:46.777Z,94924.00
2023-05-19T10:08:46.805Z,94926.00
2023-05-19T10:09:46.810Z,94922.00
2023-05-19T10:10:46.816Z,94920.00
2023-05-19T10:11:46.886Z,94914.00
2023-05-19T10:12:46.884Z,94912.00
2023-05-19T10:13:46.892Z,94910.00
2023-05-19T10:14:46.912Z,94910.00
2023-05-19T10:16:47.997Z,94906.00
2023-05-19T10:17:46.925Z,94906.00
2023-05-19T10:18:46.973Z,94908.00
2023-05-19T10:19:46.888Z,94904.00
2023-05-19T10:20:46.858Z,94902.00
2023-05-19T10:21:46.890Z,94900.00
2023-05-19T10:22:46.885Z,94898.00
2023-05-19T10:23:46.914Z,94904.00
2023-05-19T10:24:46.862Z,94900.00
2023-05-19T10:25:46.875Z,94898.00
2023-05-19T10:26:46.880Z,94894.00
2023-05-19T10:27:46.807Z,94896.00
2023-05-19T10:28:46.883Z,94894.00
2023-05-19T10:29:46.822Z,94894.00
2023-05-19T10:30:46.830Z,94892.00
2023-05-19T10:31:46.845Z,94894.00
2023-05-19T10:32:46.875Z,94890.00
2023-05-19T10:33:46.812Z,94883.00
2023-05-19T10:34:46.825Z,94883.00
2023-05-19T10:35:47.307Z,94877.00
2023-05-19T10:36:46.774Z,94875.00
2023-05-19T10:37:46.797Z,94871.00
2023-05-19T10:38:46.757Z,94867.00
2023-05-19T10:39:46.824Z,94865.00
2023-05-19T10:40:46.771Z,94863.00
2023-05-19T10:41:47.094Z,94865.00
2023-05-19T10:42:46.740Z,94865.00
2023-05-19T10:43:46.729Z,94867.00
2023-05-19T10:44:46.743Z,94865.00
2023-05-19T10:45:46.718Z,94867.00
2023-05-19T10:46:46.742Z,94865.00
2023-05-19T10:47:46.763Z,94863.00
2023-05-19T10:48:46.703Z,94863.00
2023-05-19T10:49:46.676Z,94863.00
2023-05-19T10:50:46.697Z,94863.00
2023-05-19T10:51:46.690Z,94861.00
2023-05-19T10:52:46.699Z,94857.00
2023-05-19T10:53:46.754Z,94857.00
2023-05-19T10:54:46.738Z,94853.00
2023-05-19T10:55:46.711Z,94857.00
2023-05-19T10:56:46.728Z,94853.00
2023-05-19T10:57:46.724Z,94855.00
2023-05-19T10:58:46.749Z,94855.00
2023-05-19T10:59:46.739Z,94853.00
2023-05-19T11:00:46.798Z,94849.00
2023-05-19T11:01:46.810Z,94851.00
2023-05-19T11:02:46.805Z,94851.00
2023-05-19T11:03:46.860Z,94847.00
2023-05-19T11:04:48.892Z,94845.00
2023-05-19T11:05:46.790Z,94845.00
2023-05-19T11:06:46.800Z,94847.00
2023-05-19T11:07:46.796Z,94847.00
2023-05-19T11:08:46.806Z,94843.00
2023-05-19T11:09:46.755Z,94845.00
2023-05-19T11:10:46.766Z,94849.00
2023-05-19T11:11:46.802Z,94843.00
2023-05-19T11:12:46.804Z,94843.00
2023-05-19T11:13:46.791Z,94843.00
2023-05-19T11:14:46.750Z,94843.00
2023-05-19T11:15:46.753Z,94845.00
2023-05-19T11:16:46.900Z,94841.00
2023-05-19T11:17:46.756Z,94845.00
2023-05-19T11:18:46.799Z,94841.00
2023-05-19T11:19:46.731Z,94839.00
2023-05-19T11:20:46.784Z,94837.00
2023-05-19T11:21:46.746Z,94834.00
2023-05-19T11:22:46.689Z,94834.00
2023-05-19T11:23:46.778Z,94832.00
2023-05-19T11:24:46.721Z,94830.00
2023-05-19T11:25:46.822Z,94832.00
2023-05-19T11:26:46.892Z,94832.00
2023-05-19T11:27:46.883Z,94830.00
2023-05-19T11:28:46.949Z,94828.00
2023-05-19T11:29:47.007Z,94828.00
2023-05-19T11:30:47.053Z,94824.00
2023-05-19T11:31:47.121Z,94826.00
2023-05-19T11:32:47.145Z,94822.00
2023-05-19T11:33:47.179Z,94818.00
2023-05-19T11:34:47.260Z,94816.00
2023-05-19T11:35:47.286Z,94816.00
2023-05-19T11:36:47.369Z,94814.00
2023-05-19T11:37:47.407Z,94810.00
2023-05-19T11:38:47.467Z,94812.00
2023-05-19T11:39:47.471Z,94812.00
2023-05-19T11:40:47.552Z,94806.00
2023-05-19T11:41:47.594Z,94806.00
2023-05-19T11:42:47.641Z,94802.00
2023-05-19T11:43:47.681Z,94798.00
2023-05-19T11:44:47.710Z,94800.00
2023-05-19T11:45:47.778Z,94798.00